Time;durP1;ratioP1;P1;durP2;ratioP2;P2;SDS_P1;SDS_P2;PMS_P1;PMS_P2;Temp;Humidity;BMP_temperature;BMP_pressure;BME280_temperature;BME280_humidity;BME280_pressure;Samples;Min_cycle;Max_cycle;Signal;HPM_P1;HPM_P2
2021/12/08 00:00:39;;;;;;;5.50;5.00;;;-4.40;99.90;;;;;;4887533;29;20052;-78
2021/12/08 00:03:09;;;;;;;4.20;3.83;;;-4.30;99.90;;;;;;4886342;29;20406;-78
2021/12/08 00:05:39;;;;;;;4.43;4.03;;;-4.20;99.90;;;;;;4883778;29;20068;-78
2021/12/08 00:08:07;;;;;;;5.20;4.32;;;-4.20;99.90;;;;;;4887931;29;20160;-78
2021/12/08 00:13:07;;;;;;;4.97;4.50;;;-4.10;99.90;;;;;;4885313;29;20040;-77
2021/12/08 00:15:40;;;;;;;5.60;4.70;;;-4.10;99.90;;;;;;4887762;29;20048;-77
2021/12/08 00:18:14;;;;;;;4.40;4.00;;;-4.10;99.90;;;;;;4888250;29;20120;-77
2021/12/08 00:20:45;;;;;;;4.33;3.40;;;-4.10;99.90;;;;;;4880218;29;20119;-77
2021/12/08 00:23:14;;;;;;;4.10;2.80;;;-4.10;99.90;;;;;;4885681;29;20048;-77
2021/12/08 00:25:42;;;;;;;3.30;2.70;;;-4.00;99.90;;;;;;4884429;29;20053;-77
2021/12/08 00:28:10;;;;;;;3.03;2.72;;;-4.00;99.90;;;;;;4902441;29;20128;-77
2021/12/08 00:30:40;;;;;;;4.70;2.57;;;-3.90;99.90;;;;;;4887383;29;20542;-77
2021/12/08 00:33:09;;;;;;;2.67;2.37;;;-3.90;99.90;;;;;;4883155;29;20305;-78
2021/12/08 00:35:37;;;;;;;5.17;2.43;;;-3.90;99.90;;;;;;4903721;29;20562;-78
2021/12/08 00:38:05;;;;;;;3.30;2.45;;;-3.80;99.90;;;;;;4886398;29;20167;-78
2021/12/08 00:40:32;;;;;;;3.57;2.70;;;-3.80;99.90;;;;;;4898526;29;20067;-78
2021/12/08 00:43:00;;;;;;;1.85;1.75;;;-3.80;99.90;;;;;;4886118;29;20732;-78
2021/12/08 00:45:29;;;;;;;2.17;2.00;;;-3.80;99.90;;;;;;4885646;29;20104;-78
2021/12/08 00:47:57;;;;;;;2.47;2.27;;;-3.80;99.90;;;;;;4880641;29;20459;-78
2021/12/08 00:50:27;;;;;;;2.55;2.15;;;-3.80;99.90;;;;;;4882910;29;20116;-78
2021/12/08 00:52:56;;;;;;;2.42;2.22;;;-3.70;99.90;;;;;;4882773;29;20048;-78
2021/12/08 00:55:25;;;;;;;2.60;2.40;;;-3.70;99.90;;;;;;4887236;29;20060;-78
2021/12/08 00:57:53;;;;;;;4.27;2.30;;;-3.70;99.90;;;;;;4885553;29;20048;-78
2021/12/08 01:00:28;;;;;;;3.03;2.23;;;-3.70;99.90;;;;;;4887298;29;20141;-78
2021/12/08 01:02:57;;;;;;;2.87;2.20;;;-3.70;99.90;;;;;;4900665;29;20140;-78
2021/12/08 01:05:32;;;;;;;2.75;2.53;;;-3.60;99.90;;;;;;4886787;29;20049;-78
2021/12/08 01:08:00;;;;;;;2.58;2.00;;;-3.60;99.90;;;;;;4885248;29;20064;-78
2021/12/08 01:10:29;;;;;;;2.90;2.47;;;-3.60;99.90;;;;;;4887905;29;20056;-78
2021/12/08 01:13:05;;;;;;;2.20;2.00;;;-3.60;99.90;;;;;;4875975;29;20435;-78
2021/12/08 01:15:34;;;;;;;2.15;1.95;;;-3.60;99.90;;;;;;4897419;29;20059;-78
2021/12/08 01:18:01;;;;;;;2.53;2.03;;;-3.60;99.90;;;;;;4884686;29;20048;-78
2021/12/08 01:20:28;;;;;;;3.00;2.13;;;-3.60;99.90;;;;;;4887788;29;20052;-78
2021/12/08 01:22:55;;;;;;;2.33;1.70;;;-3.50;99.90;;;;;;4885414;29;20053;-78
2021/12/08 01:25:22;;;;;;;2.67;2.38;;;-3.50;99.90;;;;;;4896977;29;20053;-78
2021/12/08 01:27:50;;;;;;;4.50;2.53;;;-3.50;99.90;;;;;;4883823;29;20404;-78
2021/12/08 01:30:17;;;;;;;2.42;2.22;;;-3.50;99.90;;;;;;4888579;29;20143;-78
2021/12/08 01:32:44;;;;;;;3.15;2.53;;;-3.50;99.90;;;;;;4888138;29;20048;-78
2021/12/08 01:35:11;;;;;;;2.60;2.40;;;-3.40;99.90;;;;;;4886775;29;20049;-78
2021/12/08 01:37:40;;;;;;;5.00;2.58;;;-3.40;99.90;;;;;;4883858;29;20061;-78
2021/12/08 01:40:10;;;;;;;2.47;2.27;;;-3.40;99.90;;;;;;4888468;29;20786;-77
2021/12/08 01:42:45;;;;;;;3.33;3.03;;;-3.40;99.90;;;;;;4889058;29;20469;-78
2021/12/08 01:48:13;;;;;;;2.63;2.33;;;-3.30;99.90;;;;;;4898516;29;20057;-78
2021/12/08 01:50:43;;;;;;;2.97;2.58;;;-3.20;99.90;;;;;;4885795;29;20120;-78
2021/12/08 01:53:10;;;;;;;3.63;2.75;;;-3.20;99.90;;;;;;4887465;29;20052;-78
2021/12/08 01:55:39;;;;;;;3.13;2.47;;;-3.10;99.90;;;;;;4901836;29;20113;-78
2021/12/08 01:58:08;;;;;;;4.10;2.63;;;-3.20;99.90;;;;;;4887800;29;20483;-78
2021/12/08 02:00:41;;;;;;;2.88;2.35;;;-3.10;99.90;;;;;;4888172;29;20143;-79
2021/12/08 02:03:09;;;;;;;4.18;2.80;;;-3.10;99.90;;;;;;4888769;29;20395;-79
2021/12/08 02:05:38;;;;;;;3.13;2.58;;;-3.10;99.90;;;;;;4889473;29;20064;-80
2021/12/08 02:08:06;;;;;;;3.20;2.70;;;-3.10;99.90;;;;;;4871961;29;20311;-80
2021/12/08 02:10:34;;;;;;;2.70;2.33;;;-3.10;99.90;;;;;;4883775;29;20053;-80
2021/12/08 02:13:01;;;;;;;2.35;2.15;;;-3.10;99.90;;;;;;4886365;29;20140;-80
2021/12/08 02:15:28;;;;;;;2.83;2.53;;;-3.10;99.90;;;;;;4889304;29;20524;-80
2021/12/08 02:17:55;;;;;;;3.00;2.60;;;-3.10;99.90;;;;;;4905001;29;20051;-80
2021/12/08 02:20:27;;;;;;;2.95;2.65;;;-3.00;99.90;;;;;;4888191;29;20487;-79
2021/12/08 02:22:55;;;;;;;3.25;2.42;;;-3.10;99.90;;;;;;4888079;29;20044;-79
2021/12/08 02:25:24;;;;;;;4.10;2.63;;;-3.00;99.90;;;;;;4878027;29;20064;-79
2021/12/08 02:27:54;;;;;;;2.92;2.58;;;-3.00;99.90;;;;;;4888507;29;20059;-79
2021/12/08 02:30:41;;;;;;;3.08;2.78;;;-3.00;99.90;;;;;;4906979;29;20052;-79
2021/12/08 02:47:12;;;;;;;3.40;2.67;;;-3.00;99.90;;;;;;4879270;29;20147;-80
2021/12/08 02:49:40;;;;;;;5.80;2.50;;;-2.90;99.90;;;;;;4887456;29;20490;-80
2021/12/08 02:52:12;;;;;;;2.72;2.03;;;-2.90;99.90;;;;;;4888363;29;20585;-80
2021/12/08 02:54:47;;;;;;;4.38;2.97;;;-2.90;99.90;;;;;;4904492;29;20498;-80
2021/12/08 02:57:15;;;;;;;2.70;2.28;;;-2.90;99.90;;;;;;4887078;29;20056;-80
2021/12/08 02:59:44;;;;;;;3.55;2.28;;;-2.90;99.90;;;;;;4887722;29;20148;-80
2021/12/08 03:02:13;;;;;;;4.03;2.70;;;-2.90;99.90;;;;;;4888838;29;20044;-80
2021/12/08 03:04:40;;;;;;;3.03;2.15;;;-2.90;99.90;;;;;;4884901;29;20048;-80
2021/12/08 03:07:08;;;;;;;3.35;2.65;;;-2.80;99.90;;;;;;4889053;29;20656;-80
2021/12/08 03:09:35;;;;;;;3.25;2.85;;;-2.80;99.90;;;;;;4885072;29;20045;-79
2021/12/08 03:12:03;;;;;;;2.50;2.08;;;-2.80;99.90;;;;;;4888008;29;20037;-79
2021/12/08 03:14:30;;;;;;;3.97;3.33;;;-2.80;99.90;;;;;;4886600;29;20048;-79
2021/12/08 03:17:02;;;;;;;3.35;2.67;;;-2.80;99.90;;;;;;4882367;29;20072;-79
2021/12/08 03:19:30;;;;;;;2.60;2.40;;;-2.70;99.90;;;;;;4884795;29;20600;-79
2021/12/08 03:21:58;;;;;;;5.38;2.70;;;-2.80;99.90;;;;;;4889884;29;20049;-80
2021/12/08 03:24:30;;;;;;;3.55;3.05;;;-2.70;99.90;;;;;;4885132;29;20461;-80
2021/12/08 03:27:08;;;;;;;2.88;2.22;;;-2.70;99.90;;;;;;4902046;29;20044;-80
2021/12/08 03:32:17;;;;;;;3.75;2.40;;;-2.70;99.90;;;;;;4903813;29;20037;-80
2021/12/08 03:34:54;;;;;;;3.63;2.00;;;-2.70;99.90;;;;;;4886545;29;20471;-79
2021/12/08 03:37:27;;;;;;;2.90;2.67;;;-2.70;99.90;;;;;;4898520;29;20052;-80
2021/12/08 03:39:55;;;;;;;2.40;2.13;;;-2.70;99.90;;;;;;4901783;29;20063;-80
2021/12/08 03:42:25;;;;;;;2.05;1.90;;;-2.70;99.90;;;;;;4888312;29;20052;-80
2021/12/08 03:44:56;;;;;;;3.47;2.20;;;-2.70;99.90;;;;;;4887600;29;20047;-79
2021/12/08 03:47:29;;;;;;;2.65;2.20;;;-2.70;99.90;;;;;;4888906;29;20083;-81
2021/12/08 03:50:00;;;;;;;3.22;2.10;;;-2.70;99.90;;;;;;4885786;29;20095;-80
2021/12/08 03:52:27;;;;;;;3.30;2.75;;;-2.60;99.90;;;;;;4887980;29;20049;-80
2021/12/08 03:54:54;;;;;;;3.08;2.67;;;-2.70;99.90;;;;;;4886061;29;20056;-79
2021/12/08 03:57:21;;;;;;;3.08;2.55;;;-2.70;99.90;;;;;;4888642;29;20611;-79
2021/12/08 03:59:48;;;;;;;3.13;2.80;;;-2.70;99.90;;;;;;4887866;29;20116;-79
2021/12/08 04:02:16;;;;;;;2.13;2.03;;;-2.60;99.90;;;;;;4888797;29;20052;-79
2021/12/08 04:04:47;;;;;;;4.05;3.65;;;-2.60;99.90;;;;;;4886327;29;20044;-80
2021/12/08 04:07:16;;;;;;;2.88;2.38;;;-2.70;99.90;;;;;;4887449;29;20055;-80
2021/12/08 04:09:45;;;;;;;3.47;2.50;;;-2.70;99.90;;;;;;4881513;29;20037;-80
2021/12/08 04:12:15;;;;;;;4.07;2.85;;;-2.70;99.90;;;;;;4886969;29;20056;-80
2021/12/08 04:14:48;;;;;;;2.90;2.63;;;-2.60;99.90;;;;;;4889508;29;20063;-80
2021/12/08 04:17:33;;;;;;;4.20;3.35;;;-2.60;99.90;;;;;;4884323;29;20052;-80
2021/12/08 04:20:06;;;;;;;4.15;3.70;;;-2.60;99.90;;;;;;4881439;29;20048;-80
2021/12/08 04:22:37;;;;;;;4.43;3.10;;;-2.60;99.90;;;;;;4886307;29;20051;-79
2021/12/08 04:25:14;;;;;;;3.65;2.88;;;-2.50;99.90;;;;;;4886245;29;20152;-81
2021/12/08 04:27:43;;;;;;;3.78;2.92;;;-2.50;99.90;;;;;;4887531;29;20041;-80
2021/12/08 04:30:24;;;;;;;6.10;3.20;;;-2.50;99.90;;;;;;4872030;29;20144;-80
2021/12/08 04:32:51;;;;;;;5.13;2.92;;;-2.40;99.90;;;;;;4898617;29;20045;-80
2021/12/08 04:35:20;;;;;;;4.43;3.20;;;-2.30;99.90;;;;;;4884038;29;20048;-80
2021/12/08 04:37:52;;;;;;;4.03;3.20;;;-2.30;99.90;;;;;;4885363;29;20542;-80
2021/12/08 04:40:39;;;;;;;3.85;2.55;;;-2.30;99.90;;;;;;4887684;29;20049;-80
2021/12/08 04:43:17;;;;;;;6.22;3.05;;;-2.30;99.90;;;;;;4883845;29;20841;-80
2021/12/08 04:46:16;;;;;;;4.47;3.40;;;-2.20;99.90;;;;;;4889800;29;20052;-81
2021/12/08 05:04:40;;;;;;;3.42;3.13;;;-2.10;99.90;;;;;;4887275;29;20049;-81
2021/12/08 05:09:44;;;;;;;4.35;2.70;;;-2.10;99.90;;;;;;4886108;29;20067;-81
2021/12/08 05:12:16;;;;;;;3.10;2.80;;;-2.20;99.90;;;;;;4885817;29;20367;-81
2021/12/08 05:14:53;;;;;;;4.80;3.83;;;-2.20;99.90;;;;;;4889092;29;20056;-80
2021/12/08 05:17:25;;;;;;;3.00;2.80;;;-2.20;99.90;;;;;;4870642;29;20063;-80
2021/12/08 05:19:56;;;;;;;3.30;3.05;;;-2.20;99.90;;;;;;4882892;29;20439;-80
2021/12/08 05:22:30;;;;;;;3.75;3.20;;;-2.20;99.90;;;;;;4885488;29;20073;-80
2021/12/08 05:25:00;;;;;;;4.53;2.75;;;-2.20;99.90;;;;;;4897375;29;20068;-80
2021/12/08 05:27:40;;;;;;;2.47;2.28;;;-2.20;99.90;;;;;;4901717;29;20072;-80
2021/12/08 05:30:19;;;;;;;3.63;2.63;;;-2.20;99.90;;;;;;4872392;29;20063;-80
2021/12/08 05:32:49;;;;;;;3.63;2.30;;;-2.30;99.90;;;;;;4900250;29;20363;-80
2021/12/08 05:35:18;;;;;;;3.47;2.90;;;-2.30;99.90;;;;;;4888918;29;20040;-80
2021/12/08 05:37:46;;;;;;;3.40;2.97;;;-2.30;99.90;;;;;;4882178;29;20048;-80
2021/12/08 05:40:41;;;;;;;5.07;2.83;;;-2.30;99.90;;;;;;4897763;29;20364;-80
2021/12/08 05:43:09;;;;;;;4.35;2.85;;;-2.30;99.90;;;;;;4879102;29;20052;-80
2021/12/08 05:45:38;;;;;;;2.70;2.50;;;-2.40;99.90;;;;;;4886462;29;20060;-80
2021/12/08 05:48:06;;;;;;;2.65;1.98;;;-2.40;99.90;;;;;;4886574;29;20139;-80
2021/12/08 05:50:46;;;;;;;2.83;2.50;;;-2.40;99.90;;;;;;4887326;29;20057;-80
2021/12/08 05:53:13;;;;;;;;;;;-2.40;99.90;;;;;;4885619;29;20063;-80
2021/12/08 05:55:42;;;;;;;3.80;2.67;;;-2.40;99.90;;;;;;4902380;29;19927;-80
2021/12/08 05:58:10;;;;;;;3.42;3.13;;;-2.40;99.90;;;;;;4887919;29;20044;-80
2021/12/08 06:00:52;;;;;;;2.20;1.92;;;-2.30;99.90;;;;;;4887625;29;20056;-79
2021/12/08 06:03:21;;;;;;;2.22;2.03;;;-2.40;99.90;;;;;;4883745;29;20538;-80
2021/12/08 06:05:50;;;;;;;3.33;2.00;;;-2.30;99.90;;;;;;4890819;29;20670;-80
2021/12/08 06:08:17;;;;;;;2.97;2.35;;;-2.40;99.90;;;;;;4888839;29;20060;-80
2021/12/08 06:10:45;;;;;;;4.63;2.55;;;-2.50;99.90;;;;;;4887262;29;20116;-80
2021/12/08 06:13:15;;;;;;;3.08;2.60;;;-2.40;99.90;;;;;;4880750;29;20056;-80
2021/12/08 06:15:45;;;;;;;3.05;2.08;;;-2.40;99.90;;;;;;4887653;29;20057;-80
2021/12/08 06:18:12;;;;;;;3.10;2.63;;;-2.40;99.90;;;;;;4903660;29;20048;-80
2021/12/08 06:20:40;;;;;;;7.93;3.83;;;-2.40;99.90;;;;;;4901061;29;20048;-80
2021/12/08 06:23:09;;;;;;;3.70;2.30;;;-2.40;99.90;;;;;;4889348;29;20064;-80
2021/12/08 06:25:37;;;;;;;3.13;2.80;;;-2.40;99.90;;;;;;4882557;29;20049;-80
2021/12/08 06:28:06;;;;;;;2.90;2.42;;;-2.40;99.90;;;;;;4900834;29;20052;-80
2021/12/08 06:30:35;;;;;;;3.20;2.33;;;-2.40;99.90;;;;;;4881654;29;20380;-80
2021/12/08 06:33:07;;;;;;;3.55;2.13;;;-2.30;99.90;;;;;;4902738;29;20402;-80
2021/12/08 06:35:46;;;;;;;2.53;2.28;;;-2.30;99.90;;;;;;4890174;29;20052;-80
2021/12/08 06:38:15;;;;;;;3.50;2.17;;;-2.30;99.90;;;;;;4872269;29;20070;-80
2021/12/08 06:40:55;;;;;;;3.77;2.57;;;-2.30;99.90;;;;;;4887113;29;20047;-80
2021/12/08 06:43:26;;;;;;;3.40;2.20;;;-2.30;99.90;;;;;;4886310;29;20646;-80
2021/12/08 06:45:56;;;;;;;5.55;2.22;;;-2.30;99.90;;;;;;4902635;29;20057;-80
2021/12/08 06:48:30;;;;;;;3.63;1.88;;;-2.30;99.90;;;;;;4885457;29;20061;-80
2021/12/08 06:51:06;;;;;;;2.33;1.80;;;-2.30;99.90;;;;;;4884745;29;20049;-79
2021/12/08 06:53:36;;;;;;;3.53;1.80;;;-2.30;99.90;;;;;;4889565;29;20048;-80
2021/12/08 06:56:14;;;;;;;2.70;1.70;;;-2.30;99.90;;;;;;4884274;29;20139;-80
2021/12/08 06:58:47;;;;;;;2.25;2.05;;;-2.30;99.90;;;;;;4882539;29;20140;-79
2021/12/08 07:07:01;;;;;;;4.47;1.67;;;-2.20;99.90;;;;;;4878359;29;20847;-80
2021/12/08 07:09:53;;;;;;;2.45;2.10;;;-2.20;99.90;;;;;;4886848;29;20045;-80
2021/12/08 07:12:28;;;;;;;2.38;2.17;;;-2.20;99.90;;;;;;4896919;29;20044;-80
2021/12/08 07:15:26;;;;;;;3.75;3.00;;;-2.20;99.90;;;;;;4901654;29;20088;-80
2021/12/08 07:18:06;;;;;;;2.53;1.70;;;-2.10;99.90;;;;;;4881192;29;20087;-80
2021/12/08 07:20:47;;;;;;;3.28;1.88;;;-2.20;99.90;;;;;;4902805;29;20076;-80
2021/12/08 07:23:22;;;;;;;5.68;2.33;;;-2.20;99.90;;;;;;4887133;29;20056;-80
2021/12/08 07:25:51;;;;;;;3.00;1.92;;;-2.20;99.90;;;;;;4875845;29;20067;-80
2021/12/08 07:28:21;;;;;;;3.20;2.30;;;-2.20;99.90;;;;;;4903603;29;20223;-80
2021/12/08 07:30:59;;;;;;;3.25;2.03;;;-2.20;99.90;;;;;;4884404;29;20056;-80
2021/12/08 07:33:27;;;;;;;2.25;1.52;;;-2.20;99.90;;;;;;4887120;29;20053;-80
2021/12/08 07:36:01;;;;;;;2.63;2.10;;;-2.30;99.90;;;;;;4902003;29;20056;-80
2021/12/08 07:38:30;;;;;;;3.10;2.05;;;-2.30;99.90;;;;;;4886520;29;20076;-80
2021/12/08 07:41:10;;;;;;;3.70;2.05;;;-2.30;99.90;;;;;;4886069;29;20111;-80
2021/12/08 07:43:45;;;;;;;3.22;1.77;;;-2.30;99.90;;;;;;4887851;29;20127;-80
2021/12/08 07:46:20;;;;;;;2.78;1.65;;;-2.30;99.90;;;;;;4886262;29;20537;-80
2021/12/08 07:48:55;;;;;;;3.20;2.17;;;-2.30;99.90;;;;;;4884684;29;20071;-80
2021/12/08 07:51:34;;;;;;;4.18;1.85;;;-2.30;99.90;;;;;;4889864;29;20054;-80
2021/12/08 07:54:03;;;;;;;3.97;2.58;;;-2.30;99.90;;;;;;4887922;29;20176;-80
2021/12/08 07:56:32;;;;;;;1.95;1.50;;;-2.30;99.90;;;;;;4887206;29;20236;-79
2021/12/08 07:59:02;;;;;;;1.25;1.13;;;-2.30;99.90;;;;;;4874950;29;20063;-80
2021/12/08 08:01:31;;;;;;;;;;;-2.40;99.90;;;;;;4888578;29;21364;-80
2021/12/08 08:04:01;;;;;;;4.25;1.52;;;-2.40;99.90;;;;;;4886084;29;19995;-80
2021/12/08 08:06:33;;;;;;;2.50;1.85;;;-2.40;99.90;;;;;;4884788;29;20045;-80
2021/12/08 08:09:03;;;;;;;2.17;1.30;;;-2.30;99.90;;;;;;4883978;29;20053;-80
2021/12/08 08:11:35;;;;;;;2.05;1.42;;;-2.40;99.90;;;;;;4886661;29;20417;-80
2021/12/08 08:14:03;;;;;;;6.90;1.63;;;-2.40;99.90;;;;;;4901563;29;20055;-80
2021/12/08 08:16:36;;;;;;;2.30;1.75;;;-2.40;99.90;;;;;;4887267;29;20648;-80
2021/12/08 08:19:10;;;;;;;2.78;1.63;;;-2.30;99.90;;;;;;4888102;29;20052;-79
2021/12/08 08:21:50;;;;;;;3.88;1.60;;;-2.30;99.90;;;;;;4900745;29;20064;-80
2021/12/08 08:24:19;;;;;;;4.40;2.37;;;-2.30;99.90;;;;;;4883054;29;20053;-80
2021/12/08 08:26:49;;;;;;;2.47;1.77;;;-2.30;99.90;;;;;;4887324;29;20172;-79
2021/12/08 08:29:17;;;;;;;1.75;1.65;;;-2.30;99.90;;;;;;4882906;29;20063;-80
2021/12/08 08:31:58;;;;;;;1.40;1.27;;;-2.30;99.90;;;;;;4888266;29;20051;-80
2021/12/08 08:34:28;;;;;;;2.30;2.10;;;-2.30;99.90;;;;;;4899554;29;20083;-80
2021/12/08 08:36:56;;;;;;;;;;;-2.20;99.90;;;;;;4883660;29;20056;-79
2021/12/08 08:39:27;;;;;;;4.65;2.15;;;-2.20;99.90;;;;;;4898975;29;19975;-79
2021/12/08 08:42:05;;;;;;;3.45;1.70;;;-2.20;99.90;;;;;;4867086;29;20059;-80
2021/12/08 08:44:44;;;;;;;1.63;1.52;;;-2.20;99.90;;;;;;4885649;29;20058;-81
2021/12/08 08:47:17;;;;;;;2.50;1.50;;;-2.20;99.90;;;;;;4888111;29;20040;-80
2021/12/08 08:49:45;;;;;;;2.63;1.65;;;-2.10;99.90;;;;;;4885594;29;20785;-80
2021/12/08 08:52:45;;;;;;;1.98;1.58;;;-2.10;99.90;;;;;;4878440;29;20059;-79
2021/12/08 08:55:41;;;;;;;4.80;1.25;;;-2.10;99.90;;;;;;4892818;29;20383;-80
2021/12/08 08:58:09;;;;;;;5.55;1.55;;;-2.10;99.90;;;;;;4887405;29;20045;-80
2021/12/08 09:00:42;;;;;;;2.70;1.27;;;-2.10;99.90;;;;;;4885948;29;20041;-79
2021/12/08 09:03:15;;;;;;;4.22;1.73;;;-2.10;99.90;;;;;;4885014;29;20068;-80
2021/12/08 09:05:51;;;;;;;4.93;1.55;;;-2.00;99.90;;;;;;4878994;29;20080;-80
2021/12/08 09:08:22;;;;;;;3.17;1.92;;;-2.10;99.90;;;;;;4883295;29;20061;-80
2021/12/08 09:11:00;;;;;;;2.00;1.40;;;-2.10;99.90;;;;;;4884850;29;20061;-79
2021/12/08 09:13:35;;;;;;;1.92;1.30;;;-2.00;99.90;;;;;;4869895;29;20450;-79
2021/12/08 09:16:08;;;;;;;3.63;1.52;;;-2.00;99.90;;;;;;4886060;29;20148;-80
2021/12/08 09:18:48;;;;;;;2.55;1.42;;;-2.10;99.90;;;;;;4898217;29;20160;-80
2021/12/08 09:21:39;;;;;;;2.65;1.33;;;-2.10;99.90;;;;;;4882795;29;20094;-80
2021/12/08 09:24:13;;;;;;;2.67;1.48;;;-2.00;99.90;;;;;;4900412;29;20044;-80
2021/12/08 09:26:56;;;;;;;1.65;1.55;;;-1.90;99.90;;;;;;4883087;29;20065;-80
2021/12/08 09:29:42;;;;;;;2.22;1.33;;;-2.00;99.90;;;;;;4883202;29;20057;-80
2021/12/08 09:32:24;;;;;;;1.70;0.95;;;-1.90;99.90;;;;;;4884592;29;20095;-80
2021/12/08 09:35:00;;;;;;;3.42;1.10;;;-1.90;99.90;;;;;;4878770;29;20044;-80
2021/12/08 09:37:40;;;;;;;1.75;1.15;;;-1.80;99.90;;;;;;4883984;29;20064;-80
2021/12/08 09:40:33;;;;;;;4.25;1.35;;;-1.80;99.90;;;;;;4886603;29;20052;-80
2021/12/08 09:43:11;;;;;;;2.08;1.40;;;-1.80;99.90;;;;;;4883331;29;20143;-80
2021/12/08 09:45:53;;;;;;;3.95;1.48;;;-1.70;99.90;;;;;;4885145;29;20040;-80
2021/12/08 09:48:26;;;;;;;1.67;1.35;;;-1.70;99.90;;;;;;4887040;29;20053;-80
2021/12/08 09:50:57;;;;;;;3.55;1.15;;;-1.60;99.90;;;;;;4882173;29;20156;-80
2021/12/08 09:53:26;;;;;;;2.42;1.50;;;-1.60;99.90;;;;;;4886756;29;20071;-80
2021/12/08 09:55:55;;;;;;;3.42;2.72;;;-1.50;99.90;;;;;;4880859;29;20049;-80
2021/12/08 09:58:23;;;;;;;3.42;1.83;;;-1.50;99.90;;;;;;4888529;29;20056;-80
2021/12/08 10:00:54;;;;;;;3.70;2.00;;;-1.40;99.90;;;;;;4886062;29;20494;-80
2021/12/08 10:03:22;;;;;;;2.13;1.73;;;-1.40;99.90;;;;;;4887027;29;20056;-80
2021/12/08 10:05:49;;;;;;;2.22;1.58;;;-1.30;99.90;;;;;;4902998;29;20067;-80
2021/12/08 10:08:17;;;;;;;1.83;1.25;;;-1.30;99.90;;;;;;4886722;29;20045;-80
2021/12/08 10:10:46;;;;;;;2.85;1.58;;;-1.30;99.90;;;;;;4888920;29;20055;-80
2021/12/08 10:13:14;;;;;;;2.88;1.75;;;-1.30;99.90;;;;;;4886511;29;20052;-80
2021/12/08 10:15:42;;;;;;;3.85;2.13;;;-1.20;99.90;;;;;;4887520;29;20096;-80
2021/12/08 10:18:11;;;;;;;2.72;1.60;;;-1.20;99.90;;;;;;4887935;29;20064;-80
2021/12/08 10:20:45;;;;;;;2.53;1.25;;;-1.20;99.90;;;;;;4889519;29;20045;-80
2021/12/08 10:23:24;;;;;;;2.95;1.50;;;-1.20;99.90;;;;;;4897516;29;20052;-80
2021/12/08 10:25:57;;;;;;;4.55;1.80;;;-1.10;99.90;;;;;;4889793;29;20529;-80
2021/12/08 10:28:46;;;;;;;2.25;1.50;;;-1.10;99.90;;;;;;4901956;29;20041;-81
2021/12/08 10:31:17;;;;;;;4.90;1.90;;;-1.10;99.90;;;;;;4878763;29;20152;-80
2021/12/08 10:34:22;;;;;;;3.08;2.00;;;-1.10;99.90;;;;;;4884943;29;20215;-80
2021/12/08 10:36:52;;;;;;;4.68;1.88;;;-1.10;99.90;;;;;;4890529;29;20483;-80
2021/12/08 10:39:36;;;;;;;5.22;2.17;;;-1.10;99.90;;;;;;4889147;29;20059;-80
2021/12/08 10:42:09;;;;;;;2.53;1.70;;;-1.20;99.90;;;;;;4885903;29;20053;-80
2021/12/08 10:47:39;;;;;;;3.28;1.80;;;-1.10;99.90;;;;;;4887728;29;20123;-80
2021/12/08 10:55:53;;;;;;;3.38;2.30;;;-1.00;99.90;;;;;;4884068;29;20053;-80
2021/12/08 10:58:24;;;;;;;5.13;2.15;;;-1.00;99.90;;;;;;4903664;29;20331;-79
2021/12/08 11:00:53;;;;;;;6.18;2.42;;;-1.00;99.90;;;;;;4885628;29;20045;-79
2021/12/08 11:03:20;;;;;;;4.95;2.45;;;-1.00;99.90;;;;;;4902357;29;20048;-79
2021/12/08 11:06:01;;;;;;;4.88;3.05;;;-1.00;99.90;;;;;;4887218;29;20443;-80
2021/12/08 11:08:35;;;;;;;6.63;2.38;;;-0.90;99.90;;;;;;4876823;29;20581;-80
2021/12/08 11:11:02;;;;;;;3.92;1.90;;;-0.90;99.90;;;;;;4886272;29;20037;-80
2021/12/08 11:13:35;;;;;;;3.72;2.38;;;-0.90;99.90;;;;;;4886114;29;20051;-80
2021/12/08 11:16:10;;;;;;;4.28;2.25;;;-0.90;99.90;;;;;;4902925;29;20080;-80
2021/12/08 11:18:47;;;;;;;6.15;2.88;;;-0.90;99.90;;;;;;4876772;29;20060;-81
2021/12/08 11:21:21;;;;;;;3.22;2.20;;;-0.90;99.90;;;;;;4883762;29;20048;-80
2021/12/08 11:24:14;;;;;;;6.07;2.20;;;-0.90;99.90;;;;;;4884732;29;20048;-80
2021/12/08 11:26:47;;;;;;;4.80;2.45;;;-0.90;99.90;;;;;;4885261;29;20041;-80
2021/12/08 11:29:18;;;;;;;9.55;3.35;;;-0.90;99.90;;;;;;4883262;29;20052;-80
2021/12/08 11:32:10;;;;;;;4.45;2.65;;;-0.90;99.90;;;;;;4882984;29;20052;-80
2021/12/08 11:34:43;;;;;;;7.10;2.65;;;-0.80;99.90;;;;;;4899451;29;20242;-80
2021/12/08 11:37:18;;;;;;;4.85;2.63;;;-0.90;99.90;;;;;;4884661;29;20048;-80
2021/12/08 11:39:49;;;;;;;4.82;2.42;;;-0.90;99.90;;;;;;4885626;29;20075;-80
2021/12/08 11:42:29;;;;;;;4.22;2.60;;;-0.90;99.90;;;;;;4882038;29;20055;-80
2021/12/08 11:44:59;;;;;;;4.60;2.53;;;-1.00;99.90;;;;;;4883492;29;20356;-80
2021/12/08 11:47:33;;;;;;;4.90;3.10;;;-1.00;99.90;;;;;;4885340;29;20414;-81
2021/12/08 11:50:11;;;;;;;5.38;3.28;;;-0.90;99.90;;;;;;4884142;29;20732;-81
2021/12/08 11:52:39;;;;;;;7.50;2.85;;;-1.00;99.90;;;;;;4884042;29;20087;-81
2021/12/08 11:55:11;;;;;;;6.90;3.55;;;-1.00;99.90;;;;;;4885183;29;20071;-81
2021/12/08 11:57:48;;;;;;;4.65;2.58;;;-1.00;99.90;;;;;;4884370;29;20067;-81
2021/12/08 12:00:18;;;;;;;5.75;3.08;;;-1.00;99.90;;;;;;4883411;29;20447;-81
2021/12/08 12:02:53;;;;;;;4.33;2.87;;;-1.00;99.90;;;;;;4884001;29;20777;-81
2021/12/08 12:05:33;;;;;;;5.18;3.03;;;-1.00;99.90;;;;;;4880976;29;20052;-81
2021/12/08 12:08:02;;;;;;;3.65;3.10;;;-1.00;99.90;;;;;;4884420;29;20557;-81
2021/12/08 12:10:35;;;;;;;7.03;2.92;;;-1.00;99.90;;;;;;4886190;29;20053;-81
2021/12/08 12:13:08;;;;;;;4.70;2.67;;;-1.00;99.90;;;;;;4880363;29;20048;-81
2021/12/08 12:15:37;;;;;;;5.25;2.97;;;-0.90;99.90;;;;;;4885262;29;20597;-81
2021/12/08 12:18:05;;;;;;;4.72;2.80;;;-0.90;99.90;;;;;;4878501;29;20100;-81
2021/12/08 12:20:38;;;;;;;3.75;3.03;;;-0.90;99.90;;;;;;4901999;29;20048;-81
2021/12/08 12:23:46;;;;;;;2.67;2.13;;;-0.80;99.90;;;;;;4884529;29;20056;-81
2021/12/08 12:26:53;;;;;;;5.40;2.90;;;-0.90;99.90;;;;;;4879963;29;20145;-81
2021/12/08 12:29:55;;;;;;;5.00;1.80;;;-0.90;99.90;;;;;;4878087;29;20052;-81
2021/12/08 12:32:26;;;;;;;3.60;2.55;;;-0.90;99.90;;;;;;4883771;29;20053;-81
2021/12/08 12:35:16;;;;;;;2.58;2.30;;;-0.80;99.90;;;;;;4894876;29;20048;-81
2021/12/08 12:37:44;;;;;;;7.90;3.03;;;-0.80;99.90;;;;;;4884058;29;20045;-81
2021/12/08 12:40:29;;;;;;;5.57;3.70;;;-0.90;99.90;;;;;;4884688;29;20540;-81
2021/12/08 12:42:59;;;;;;;6.57;2.65;;;-0.90;99.90;;;;;;4895927;29;20044;-81
2021/12/08 12:45:38;;;;;;;4.28;2.65;;;-0.90;99.90;;;;;;4885002;29;20045;-81
2021/12/08 12:48:23;;;;;;;5.45;2.70;;;-0.90;99.90;;;;;;4883718;29;20168;-81
2021/12/08 12:51:07;;;;;;;5.32;2.88;;;-0.90;99.90;;;;;;4882377;29;20079;-81
2021/12/08 12:53:55;;;;;;;6.60;2.25;;;-1.00;99.90;;;;;;4885627;29;20171;-81
2021/12/08 12:56:34;;;;;;;5.25;2.95;;;-1.00;99.90;;;;;;4884463;29;20124;-81
2021/12/08 12:59:21;;;;;;;5.68;2.50;;;-1.00;99.90;;;;;;4880637;29;20378;-81
2021/12/08 13:02:23;;;;;;;3.10;2.10;;;-1.00;99.90;;;;;;4899030;29;20581;-81
2021/12/08 13:04:57;;;;;;;5.40;2.33;;;-1.00;99.90;;;;;;4878289;29;20051;-81
2021/12/08 13:07:27;;;;;;;8.15;2.53;;;-1.00;99.90;;;;;;4885522;29;20518;-81
2021/12/08 13:09:56;;;;;;;7.00;2.15;;;-1.10;99.90;;;;;;4889520;29;20495;-81
2021/12/08 13:12:39;;;;;;;3.70;2.08;;;-1.10;99.90;;;;;;4883740;29;20444;-81
2021/12/08 13:15:08;;;;;;;6.57;2.58;;;-1.10;99.90;;;;;;4880413;29;20056;-81
2021/12/08 13:17:36;;;;;;;4.65;2.85;;;-1.20;99.90;;;;;;4886953;29;20071;-82
2021/12/08 13:20:10;;;;;;;5.85;2.20;;;-1.20;99.90;;;;;;4884948;29;20049;-82
2021/12/08 13:22:52;;;;;;;3.83;1.77;;;-1.20;99.90;;;;;;4882001;29;20048;-81
2021/12/08 13:28:38;;;;;;;7.40;3.00;;;-1.30;99.90;;;;;;4886964;29;20045;-81
2021/12/08 13:31:14;;;;;;;6.20;3.72;;;-1.40;99.90;;;;;;4888329;29;20179;-81
2021/12/08 13:33:54;;;;;;;5.43;2.47;;;-1.40;99.90;;;;;;4900613;29;20438;-81
2021/12/08 13:36:22;;;;;;;4.35;3.10;;;-1.40;99.90;;;;;;4886148;29;20048;-81
2021/12/08 13:38:58;;;;;;;3.60;2.40;;;-1.50;99.90;;;;;;4884360;29;20499;-81
2021/12/08 13:41:29;;;;;;;4.85;2.63;;;-1.50;99.90;;;;;;4884920;29;20075;-81
2021/12/08 13:43:57;;;;;;;6.32;2.50;;;-1.60;99.90;;;;;;4887291;29;21425;-81
2021/12/08 13:46:36;;;;;;;6.25;2.83;;;-1.70;99.90;;;;;;4888310;29;20045;-82
2021/12/08 13:49:19;;;;;;;5.35;2.20;;;-1.70;99.90;;;;;;4898831;29;20046;-81
2021/12/08 13:52:18;;;;;;;4.38;1.98;;;-1.70;99.90;;;;;;4884154;29;20148;-81
2021/12/08 13:54:56;;;;;;;4.53;2.28;;;-1.80;99.90;;;;;;4849464;29;20052;-82
2021/12/08 13:57:38;;;;;;;2.15;1.95;;;-1.80;99.90;;;;;;4886141;29;20410;-82
2021/12/08 14:00:11;;;;;;;4.32;2.20;;;-1.90;99.90;;;;;;4883941;29;20063;-82
2021/12/08 14:02:38;;;;;;;8.70;2.72;;;-1.90;99.90;;;;;;4900578;29;20041;-82
2021/12/08 14:05:11;;;;;;;6.32;2.45;;;-1.90;99.90;;;;;;4880276;29;20067;-82
2021/12/08 14:07:43;;;;;;;3.53;2.55;;;-1.90;99.90;;;;;;4886635;29;20053;-82
2021/12/08 14:10:15;;;;;;;6.22;2.85;;;-1.90;99.90;;;;;;4886356;29;20114;-82
2021/12/08 14:12:53;;;;;;;7.72;2.53;;;-2.00;99.90;;;;;;4885100;29;20127;-82
2021/12/08 14:15:32;;;;;;;5.93;2.78;;;-2.00;99.90;;;;;;4884967;29;20053;-82
2021/12/08 14:18:47;;;;;;;6.05;2.92;;;-2.00;99.90;;;;;;4886940;29;20045;-82